Monmouth, Iowa
Current Conditions -  °F | °C
As of 12:35 AM on Friday 31 Oct 2014 (Local Time) from KMXO Reporting Station
Overcast Overcast  
Wind Chill: 36°   Ceiling: 3900
Heat Index: 45°   Visibility: 10mi
Dew Point: 32°   Wind: 24mph
Humidity: 61%   Direction: 330°NNW
Pressure: 30.15"   Gusts: 30mph
Location:  42.08°N, 90.88°W
Report Text: KMXO 310535Z AUTO 33021G26KT 10SM SCT031 OVC039 07/00 A3015 RMK AO2
Loading
Personal Weather Stations






























Interactive Weather Map
Tropical Storm Tracking
New forecast layout! Learn more

10-Day Weather Forecast

Advertisements
Track Severe Weather on mobile